Time;durP1;ratioP1;P1;durP2;ratioP2;P2;SDS_P1;SDS_P2;PMS_P1;PMS_P2;Temp;Humidity;BMP_temperature;BMP_pressure;BME280_temperature;BME280_humidity;BME280_pressure;Samples;Min_cycle;Max_cycle;Signal;HPM_P1;HPM_P2
2022/08/22 00:01:55;;;;;;;5.03;3.03;;;;;;;;;;7333584;19;153985;-18
2022/08/22 00:04:35;;;;;;;4.22;2.88;;;;;;;;;;7333418;19;153512;-14
2022/08/22 00:07:14;;;;;;;2.97;2.67;;;;;;;;;;7333199;19;161891;-15
2022/08/22 00:09:53;;;;;;;4.05;2.97;;;;;;;;;;7333184;19;162367;-15
2022/08/22 00:12:32;;;;;;;4.75;3.20;;;;;;;;;;7331444;19;154064;-14
2022/08/22 00:15:08;;;;;;;4.68;2.83;;;;;;;;;;7333422;19;153279;-14
2022/08/22 00:17:49;;;;;;;4.65;2.90;;;;;;;;;;7332945;19;161794;-15
2022/08/22 00:20:25;;;;;;;3.13;2.83;;;;;;;;;;7332781;19;162538;-15
2022/08/22 00:23:00;;;;;;;3.85;3.05;;;;;;;;;;7333100;19;154138;-14
2022/08/22 00:25:46;;;;;;;4.68;2.60;;;;;;;;;;7333157;19;153567;-15
2022/08/22 00:28:26;;;;;;;3.85;2.70;;;;;;;;;;7332638;19;161881;-14
2022/08/22 00:31:04;;;;;;;3.25;2.20;;;;;;;;;;7330668;19;162354;-14
2022/08/22 00:33:52;;;;;;;5.75;3.20;;;;;;;;;;7330911;19;154165;-14
2022/08/22 00:36:30;;;;;;;4.20;2.53;;;;;;;;;;7332654;19;153525;-13
2022/08/22 00:39:09;;;;;;;4.30;2.50;;;;;;;;;;7331079;19;162091;-14
2022/08/22 00:41:57;;;;;;;6.38;2.53;;;;;;;;;;7332259;19;162369;-14
2022/08/22 00:44:57;;;;;;;3.92;2.78;;;;;;;;;;7332533;19;154213;-14
2022/08/22 00:47:46;;;;;;;4.40;2.80;;;;;;;;;;7332373;19;153571;-14
2022/08/22 00:50:45;;;;;;;4.18;2.60;;;;;;;;;;7330695;19;161903;-14
2022/08/22 00:53:41;;;;;;;2.75;2.55;;;;;;;;;;7330190;19;163648;-14
2022/08/22 00:56:43;;;;;;;3.25;2.50;;;;;;;;;;7332044;19;154020;-14
2022/08/22 01:00:01;;;;;;;4.63;2.67;;;;;;;;;;7330810;19;153733;-14
2022/08/22 01:02:43;;;;;;;4.05;2.58;;;;;;;;;;7330888;19;161909;-15
2022/08/22 01:05:31;;;;;;;2.92;2.47;;;;;;;;;;7330333;19;162431;-15
2022/08/22 01:08:30;;;;;;;5.75;2.92;;;;;;;;;;7332026;19;154057;-14
2022/08/22 01:11:13;;;;;;;4.47;2.72;;;;;;;;;;7334411;19;153571;-15
2022/08/22 01:14:05;;;;;;;3.72;2.70;;;;;;;;;;7329509;19;161948;-14
2022/08/22 01:17:01;;;;;;;3.63;2.30;;;;;;;;;;7331515;19;162522;-14
2022/08/22 01:20:02;;;;;;;2.88;2.30;;;;;;;;;;7331266;19;153852;-15
2022/08/22 01:23:02;;;;;;;3.75;2.67;;;;;;;;;;7330131;19;153779;-14
2022/08/22 01:26:05;;;;;;;3.20;2.90;;;;;;;;;;7330735;19;161973;-14
2022/08/22 01:29:16;;;;;;;5.13;2.55;;;;;;;;;;7330744;19;162626;-14
2022/08/22 01:32:30;;;;;;;3.75;2.50;;;;;;;;;;7331108;19;154414;-15
2022/08/22 01:35:33;;;;;;;5.13;2.45;;;;;;;;;;7329553;19;153688;-14
2022/08/22 01:38:27;;;;;;;4.22;2.80;;;;;;;;;;7330542;19;161822;-15
2022/08/22 01:41:21;;;;;;;3.47;2.40;;;;;;;;;;7330455;19;162398;-15
2022/08/22 01:44:14;;;;;;;3.05;2.40;;;;;;;;;;7330810;19;153986;-15
2022/08/22 01:46:55;;;;;;;3.38;2.30;;;;;;;;;;7330926;19;153819;-15
2022/08/22 01:49:31;;;;;;;3.03;2.45;;;;;;;;;;7330473;19;162540;-14
2022/08/22 01:52:11;;;;;;;3.17;2.83;;;;;;;;;;7330172;19;162365;-14
2022/08/22 01:54:53;;;;;;;4.93;2.45;;;;;;;;;;7327615;19;154215;-14
2022/08/22 01:57:26;;;;;;;;;;;;;;;;;;7329862;19;153614;-14
2022/08/22 02:00:03;;;;;;;3.53;2.40;;;;;;;;;;7330413;19;162060;-15
2022/08/22 02:03:00;;;;;;;4.18;2.40;;;;;;;;;;7330063;19;162558;-15
2022/08/22 02:05:38;;;;;;;2.55;2.33;;;;;;;;;;7330330;19;154227;-15
2022/08/22 02:08:28;;;;;;;4.35;2.35;;;;;;;;;;7330123;19;153741;-14
2022/08/22 02:11:07;;;;;;;3.80;2.60;;;;;;;;;;7329814;19;161813;-15
2022/08/22 02:13:56;;;;;;;3.97;2.50;;;;;;;;;;7328968;19;162934;-15
2022/08/22 02:16:36;;;;;;;4.22;2.47;;;;;;;;;;7330050;19;154021;-15
2022/08/22 02:19:24;;;;;;;3.92;2.33;;;;;;;;;;7329940;19;153570;-15
2022/08/22 02:22:01;;;;;;;3.83;2.53;;;;;;;;;;7329573;19;162202;-14
2022/08/22 02:24:52;;;;;;;5.68;2.60;;;;;;;;;;7329225;19;162414;-14
2022/08/22 02:27:35;;;;;;;4.40;2.33;;;;;;;;;;7329586;19;154289;-14
2022/08/22 02:30:09;;;;;;;;;;;;;;;;;;7329646;19;153675;-15
2022/08/22 02:32:53;;;;;;;4.53;2.70;;;;;;;;;;7329003;19;162085;-15
2022/08/22 02:35:32;;;;;;;3.15;2.63;;;;;;;;;;7326256;19;162389;-15
2022/08/22 02:38:25;;;;;;;2.75;2.15;;;;;;;;;;7329348;19;154016;-15
2022/08/22 02:41:11;;;;;;;5.00;2.50;;;;;;;;;;7329392;19;153639;-15
2022/08/22 02:43:49;;;;;;;3.63;2.35;;;;;;;;;;7329089;19;161995;-15
2022/08/22 02:46:28;;;;;;;3.47;2.50;;;;;;;;;;7328589;19;162297;-14
2022/08/22 02:49:09;;;;;;;4.68;2.58;;;;;;;;;;7328848;19;154042;-15
2022/08/22 02:51:51;;;;;;;3.97;2.42;;;;;;;;;;7328768;19;153662;-15
2022/08/22 02:54:28;;;;;;;3.53;2.53;;;;;;;;;;7325985;19;161873;-14
2022/08/22 02:57:06;;;;;;;3.45;2.65;;;;;;;;;;7335204;19;162409;-14
2022/08/22 03:00:04;;;;;;;3.38;2.05;;;;;;;;;;7335453;19;154166;-14
2022/08/22 03:02:41;;;;;;;3.13;2.28;;;;;;;;;;7334247;19;153703;-15
2022/08/22 03:05:25;;;;;;;3.22;2.38;;;;;;;;;;7333683;19;162120;-15
2022/08/22 03:08:03;;;;;;;5.10;2.47;;;;;;;;;;7335637;19;162492;-14
2022/08/22 03:10:39;;;;;;;6.78;2.83;;;;;;;;;;7334169;19;154355;-14
2022/08/22 03:13:19;;;;;;;3.42;2.45;;;;;;;;;;7335310;19;153545;-15
2022/08/22 03:15:54;;;;;;;4.18;2.58;;;;;;;;;;7336535;19;162290;-14
2022/08/22 03:18:29;;;;;;;4.35;2.85;;;;;;;;;;7334546;19;162514;-14
2022/08/22 03:21:17;;;;;;;2.63;2.42;;;;;;;;;;7335143;19;154119;-14
2022/08/22 03:23:54;;;;;;;4.53;2.97;;;;;;;;;;7335017;19;153464;-14
2022/08/22 03:26:29;;;;;;;2.85;2.47;;;;;;;;;;7332853;19;161894;-14
2022/08/22 03:29:10;;;;;;;4.20;2.63;;;;;;;;;;7334460;19;162371;-14
2022/08/22 03:32:09;;;;;;;2.65;2.45;;;;;;;;;;7333615;19;154473;-14
2022/08/22 03:34:55;;;;;;;3.42;2.33;;;;;;;;;;7333632;19;153874;-14
2022/08/22 03:37:37;;;;;;;4.20;2.35;;;;;;;;;;7333052;19;161852;-15
2022/08/22 03:40:22;;;;;;;5.93;2.55;;;;;;;;;;7334047;19;162651;-14
2022/08/22 03:43:23;;;;;;;2.80;2.55;;;;;;;;;;7334082;19;154030;-14
2022/08/22 03:46:29;;;;;;;3.75;2.50;;;;;;;;;;7333099;19;153931;-14
2022/08/22 03:49:38;;;;;;;4.05;2.55;;;;;;;;;;7333712;19;162143;-14
2022/08/22 03:53:05;;;;;;;3.53;2.78;;;;;;;;;;7333758;19;162425;-14
2022/08/22 03:55:41;;;;;;;5.13;2.70;;;;;;;;;;7332144;19;154087;-14
2022/08/22 03:58:40;;;;;;;5.15;2.67;;;;;;;;;;7333649;19;153508;-15
2022/08/22 04:01:40;;;;;;;6.60;2.53;;;;;;;;;;7333122;19;162001;-14
2022/08/22 04:04:48;;;;;;;2.85;2.42;;;;;;;;;;7333353;19;162337;-15
2022/08/22 04:07:37;;;;;;;3.88;2.50;;;;;;;;;;7330870;19;153716;-14
2022/08/22 04:10:42;;;;;;;4.68;2.63;;;;;;;;;;7333396;19;153444;-14
2022/08/22 04:13:47;;;;;;;4.70;2.30;;;;;;;;;;7333248;19;162064;-14
2022/08/22 04:16:54;;;;;;;3.92;2.50;;;;;;;;;;7330762;19;162432;-14
2022/08/22 04:19:39;;;;;;;2.85;2.40;;;;;;;;;;7332475;19;154215;-15
2022/08/22 04:22:34;;;;;;;3.53;2.50;;;;;;;;;;7333291;19;153938;-15
2022/08/22 04:25:09;;;;;;;3.03;2.63;;;;;;;;;;7332530;19;162126;-15
2022/08/22 04:27:49;;;;;;;3.78;2.28;;;;;;;;;;7332751;19;162560;-15
2022/08/22 04:30:26;;;;;;;3.95;2.58;;;;;;;;;;7331785;19;154386;-15
2022/08/22 04:33:03;;;;;;;3.78;3.08;;;;;;;;;;7332859;19;153517;-14
2022/08/22 04:35:37;;;;;;;4.22;2.30;;;;;;;;;;7330977;19;161847;-15
2022/08/22 04:38:16;;;;;;;2.78;2.40;;;;;;;;;;7332220;19;162604;-15
2022/08/22 04:40:52;;;;;;;3.47;2.42;;;;;;;;;;7332774;19;154117;-14
2022/08/22 04:43:29;;;;;;;4.68;2.65;;;;;;;;;;7332407;19;153658;-14
2022/08/22 04:46:07;;;;;;;5.50;2.38;;;;;;;;;;7332055;19;161842;-15
2022/08/22 04:48:42;;;;;;;3.75;2.25;;;;;;;;;;7332045;19;162414;-15
2022/08/22 04:51:21;;;;;;;5.13;2.70;;;;;;;;;;7331458;19;154080;-14
2022/08/22 04:54:21;;;;;;;2.25;2.03;;;;;;;;;;7330488;19;153488;-14
2022/08/22 04:57:08;;;;;;;6.60;2.00;;;;;;;;;;7329547;19;161825;-14
2022/08/22 04:59:39;;;;;;;2.60;2.20;;;;;;;;;;7331838;19;162334;-14
2022/08/22 05:02:16;;;;;;;3.53;2.28;;;;;;;;;;7332117;19;154036;-14
2022/08/22 05:04:51;;;;;;;4.32;2.67;;;;;;;;;;7332155;19;154081;-14
2022/08/22 05:07:28;;;;;;;3.85;2.45;;;;;;;;;;7330184;19;161971;-14
2022/08/22 05:10:10;;;;;;;4.05;2.30;;;;;;;;;;7331508;19;162448;-15
2022/08/22 05:12:47;;;;;;;3.28;2.30;;;;;;;;;;7331787;19;154076;-14
2022/08/22 05:15:22;;;;;;;3.75;2.25;;;;;;;;;;7331249;19;153507;-15
2022/08/22 05:17:57;;;;;;;3.60;2.45;;;;;;;;;;7328960;19;162225;-14
2022/08/22 05:20:30;;;;;;;3.88;2.70;;;;;;;;;;7331141;19;162526;-14
2022/08/22 05:23:15;;;;;;;4.30;2.33;;;;;;;;;;7332965;19;154268;-15
2022/08/22 05:25:52;;;;;;;3.72;2.28;;;;;;;;;;7331428;19;153555;-14
2022/08/22 05:28:33;;;;;;;4.20;2.20;;;;;;;;;;7331072;19;161934;-15
2022/08/22 05:31:07;;;;;;;3.17;2.33;;;;;;;;;;7330366;19;162472;-14
2022/08/22 05:33:43;;;;;;;2.65;2.20;;;;;;;;;;7330972;19;153774;-14
2022/08/22 05:36:18;;;;;;;4.43;2.50;;;;;;;;;;7329645;19;153303;-15
2022/08/22 05:38:52;;;;;;;5.38;2.28;;;;;;;;;;7329532;19;162171;-14
2022/08/22 05:41:30;;;;;;;4.15;2.33;;;;;;;;;;7330442;19;162576;-15
2022/08/22 05:44:03;;;;;;;3.40;2.03;;;;;;;;;;7330758;19;154214;-14
2022/08/22 05:46:42;;;;;;;2.90;2.15;;;;;;;;;;7330383;19;153786;-14
2022/08/22 05:49:22;;;;;;;2.33;2.10;;;;;;;;;;7330530;19;162081;-14
2022/08/22 05:52:07;;;;;;;4.32;2.28;;;;;;;;;;7330293;19;162558;-14
2022/08/22 05:54:50;;;;;;;3.47;2.40;;;;;;;;;;7327943;19;154673;-14
2022/08/22 05:57:29;;;;;;;;;;;;;;;;;;7328745;19;153687;-14
2022/08/22 06:00:09;;;;;;;2.63;2.10;;;;;;;;;;7330080;19;162002;-14
2022/08/22 06:03:00;;;;;;;3.70;2.55;;;;;;;;;;7329894;19;162612;-15
2022/08/22 06:05:37;;;;;;;2.58;2.22;;;;;;;;;;7330389;19;154209;-15
2022/08/22 06:08:22;;;;;;;3.45;2.35;;;;;;;;;;7328880;19;153690;-15
2022/08/22 06:10:57;;;;;;;2.95;2.22;;;;;;;;;;7329396;19;161791;-14
2022/08/22 06:13:36;;;;;;;4.55;2.65;;;;;;;;;;7328602;19;162388;-15
2022/08/22 06:16:11;;;;;;;4.03;2.58;;;;;;;;;;7328926;19;154155;-14
2022/08/22 06:18:46;;;;;;;3.88;2.60;;;;;;;;;;7329570;19;153573;-15
2022/08/22 06:21:23;;;;;;;4.28;2.53;;;;;;;;;;7327936;19;161825;-20
2022/08/22 06:23:58;;;;;;;2.92;2.30;;;;;;;;;;7328255;19;162477;-15
2022/08/22 06:26:34;;;;;;;4.07;2.58;;;;;;;;;;7329598;19;154297;-15
2022/08/22 06:29:10;;;;;;;2.92;2.60;;;;;;;;;;7327048;19;153629;-14
2022/08/22 06:31:49;;;;;;;3.55;2.80;;;;;;;;;;7328850;19;162408;-14
2022/08/22 06:34:26;;;;;;;3.83;2.53;;;;;;;;;;7328635;19;162919;-14
2022/08/22 06:37:00;;;;;;;3.40;2.50;;;;;;;;;;7327775;19;154132;-15
2022/08/22 06:39:34;;;;;;;4.82;2.42;;;;;;;;;;7328933;19;153589;-14
2022/08/22 06:42:10;;;;;;;4.40;2.30;;;;;;;;;;7328259;19;161913;-15
2022/08/22 06:44:53;;;;;;;3.60;2.30;;;;;;;;;;7327528;19;162615;-14
2022/08/22 06:47:27;;;;;;;2.90;2.20;;;;;;;;;;7327908;19;154257;-15
2022/08/22 06:50:03;;;;;;;3.85;2.35;;;;;;;;;;7328805;19;153554;-15
2022/08/22 06:52:48;;;;;;;2.53;2.30;;;;;;;;;;7328470;19;161817;-15
2022/08/22 06:55:20;;;;;;;2.22;2.03;;;;;;;;;;7328124;19;162493;-14
2022/08/22 06:57:55;;;;;;;4.50;2.50;;;;;;;;;;7325646;19;154003;-15
2022/08/22 07:00:30;;;;;;;2.92;2.53;;;;;;;;;;7328890;19;153667;-15
2022/08/22 07:03:07;;;;;;;4.32;2.10;;;;;;;;;;7328307;19;162036;-14
2022/08/22 07:05:40;;;;;;;3.38;2.25;;;;;;;;;;7328103;19;162297;-14
2022/08/22 07:08:15;;;;;;;3.85;2.25;;;;;;;;;;7328524;19;153980;-14
2022/08/22 07:10:49;;;;;;;2.72;2.47;;;;;;;;;;7328355;19;153590;-15
2022/08/22 07:13:22;;;;;;;2.40;2.20;;;;;;;;;;7328924;19;162071;-14
2022/08/22 07:16:00;;;;;;;3.38;2.63;;;;;;;;;;7327565;19;162790;-14
2022/08/22 07:18:32;;;;;;;3.10;2.45;;;;;;;;;;7324343;19;154122;-14
2022/08/22 07:21:07;;;;;;;3.53;2.38;;;;;;;;;;7328166;19;153499;-14
2022/08/22 07:23:41;;;;;;;2.88;2.10;;;;;;;;;;7327865;19;161882;-15
2022/08/22 07:26:23;;;;;;;3.03;2.60;;;;;;;;;;7327285;19;162517;-15
2022/08/22 07:28:59;;;;;;;2.88;2.20;;;;;;;;;;7326457;19;154244;-15
2022/08/22 07:31:38;;;;;;;2.92;2.20;;;;;;;;;;7327905;19;153537;-15
2022/08/22 07:34:27;;;;;;;3.80;2.22;;;;;;;;;;7327113;19;162673;-14
2022/08/22 07:37:04;;;;;;;2.70;2.22;;;;;;;;;;7326458;19;162586;-15
2022/08/22 07:39:52;;;;;;;3.20;2.45;;;;;;;;;;7327510;19;154007;-14
2022/08/22 07:42:32;;;;;;;3.17;2.35;;;;;;;;;;7334747;19;153618;-15
2022/08/22 07:45:09;;;;;;;2.53;2.20;;;;;;;;;;7334178;19;161794;-16
2022/08/22 07:48:06;;;;;;;2.63;2.15;;;;;;;;;;7333930;19;162543;-16
2022/08/22 07:50:40;;;;;;;5.40;2.47;;;;;;;;;;7333134;19;154123;-15
2022/08/22 07:53:22;;;;;;;5.03;2.33;;;;;;;;;;7333517;19;153585;-15
2022/08/22 07:55:54;;;;;;;3.28;2.30;;;;;;;;;;7334035;19;161806;-15
2022/08/22 07:58:28;;;;;;;2.45;2.25;;;;;;;;;;7332045;19;162605;-16
2022/08/22 08:01:00;;;;;;;3.28;2.58;;;;;;;;;;7334116;19;154333;-16
2022/08/22 08:03:34;;;;;;;2.37;2.17;;;;;;;;;;7333823;19;153672;-15
2022/08/22 08:06:06;;;;;;;3.88;2.58;;;;;;;;;;7333471;19;161989;-16
2022/08/22 08:08:42;;;;;;;2.53;2.33;;;;;;;;;;7333472;19;162359;-15
2022/08/22 08:11:16;;;;;;;2.90;2.22;;;;;;;;;;7334280;19;154052;-15
2022/08/22 08:13:56;;;;;;;5.82;2.40;;;;;;;;;;7333649;19;153593;-15
2022/08/22 08:16:41;;;;;;;2.95;2.42;;;;;;;;;;7333519;19;162227;-15
2022/08/22 08:19:18;;;;;;;3.90;2.50;;;;;;;;;;7330919;19;162489;-17
2022/08/22 08:21:52;;;;;;;2.25;2.05;;;;;;;;;;7333505;19;154373;-16
2022/08/22 08:24:30;;;;;;;3.05;2.40;;;;;;;;;;7333420;19;153688;-15
2022/08/22 08:29:55;;;;;;;3.75;2.75;;;;;;;;;;7333047;19;162591;-15
2022/08/22 08:32:33;;;;;;;3.17;2.65;;;;;;;;;;7333402;19;154186;-16
2022/08/22 08:35:19;;;;;;;2.97;2.22;;;;;;;;;;7333149;19;153671;-15
2022/08/22 08:37:57;;;;;;;3.20;2.47;;;;;;;;;;7332164;19;162123;-16
2022/08/22 08:40:54;;;;;;;4.40;2.47;;;;;;;;;;7332804;19;162429;-16
2022/08/22 08:43:37;;;;;;;5.10;2.40;;;;;;;;;;7333196;19;154546;-16
2022/08/22 08:46:41;;;;;;;2.57;2.37;;;;;;;;;;7332974;19;153747;-16
2022/08/22 08:49:36;;;;;;;3.80;2.83;;;;;;;;;;7331953;19;161744;-16
2022/08/22 08:52:37;;;;;;;5.03;2.40;;;;;;;;;;7330156;19;162585;-16
2022/08/22 08:55:20;;;;;;;2.90;2.25;;;;;;;;;;7331786;19;154045;-15
2022/08/22 08:58:11;;;;;;;2.83;2.15;;;;;;;;;;7331472;19;153865;-15
2022/08/22 09:00:54;;;;;;;6.68;2.83;;;;;;;;;;7331978;19;161967;-16
2022/08/22 09:03:49;;;;;;;6.13;2.90;;;;;;;;;;7331657;19;162369;-16
2022/08/22 09:06:43;;;;;;;4.55;2.88;;;;;;;;;;7333704;19;154030;-16
2022/08/22 09:09:30;;;;;;;5.80;2.67;;;;;;;;;;7332127;19;153465;-16
2022/08/22 09:12:17;;;;;;;7.35;2.80;;;;;;;;;;7333560;19;161807;-16
2022/08/22 09:15:07;;;;;;;5.80;2.70;;;;;;;;;;7331649;19;162562;-16
2022/08/22 09:17:53;;;;;;;3.85;2.47;;;;;;;;;;7331787;19;153971;-16
2022/08/22 09:20:50;;;;;;;4.75;2.60;;;;;;;;;;7331624;19;153702;-16
2022/08/22 09:23:52;;;;;;;5.18;2.65;;;;;;;;;;7330188;19;161878;-16
2022/08/22 09:26:32;;;;;;;5.05;2.33;;;;;;;;;;7331325;19;162546;-16
2022/08/22 09:29:23;;;;;;;4.30;3.13;;;;;;;;;;7331689;19;154076;-16
2022/08/22 09:32:07;;;;;;;3.10;2.67;;;;;;;;;;7331611;19;153522;-16
2022/08/22 09:34:50;;;;;;;3.03;2.67;;;;;;;;;;7331230;19;161894;-16
2022/08/22 09:37:35;;;;;;;4.05;2.95;;;;;;;;;;7330958;19;162668;-16
2022/08/22 09:40:14;;;;;;;6.63;3.22;;;;;;;;;;7328935;19;154369;-16
2022/08/22 09:42:56;;;;;;;5.25;3.28;;;;;;;;;;7331316;19;153528;-16
2022/08/22 09:45:44;;;;;;;6.55;3.05;;;;;;;;;;7330787;19;161815;-16
2022/08/22 09:48:32;;;;;;;4.93;3.13;;;;;;;;;;7329446;19;162457;-16
2022/08/22 09:51:13;;;;;;;5.18;3.28;;;;;;;;;;7331108;19;154166;-16
2022/08/22 09:54:12;;;;;;;4.22;3.05;;;;;;;;;;7328839;19;153516;-16
2022/08/22 09:57:12;;;;;;;6.10;3.63;;;;;;;;;;7330572;19;161750;-16
2022/08/22 09:59:54;;;;;;;7.05;3.22;;;;;;;;;;7327779;19;162606;-16
2022/08/22 10:02:34;;;;;;;4.73;3.10;;;;;;;;;;7330936;19;154221;-16
2022/08/22 10:05:17;;;;;;;5.80;3.90;;;;;;;;;;7330512;19;153640;-16
2022/08/22 10:08:12;;;;;;;5.45;3.28;;;;;;;;;;7329149;19;161801;-16
2022/08/22 10:10:57;;;;;;;5.22;4.28;;;;;;;;;;7330033;19;162354;-16
2022/08/22 10:13:54;;;;;;;5.53;3.55;;;;;;;;;;7330565;19;154277;-15
2022/08/22 10:16:55;;;;;;;5.20;3.15;;;;;;;;;;7330310;19;153657;-15
2022/08/22 10:19:42;;;;;;;8.00;4.07;;;;;;;;;;7327175;19;161951;-16
2022/08/22 10:22:32;;;;;;;6.03;4.25;;;;;;;;;;7329894;19;162377;-16
2022/08/22 10:25:22;;;;;;;6.10;3.75;;;;;;;;;;7330012;19;154088;-16
2022/08/22 10:28:05;;;;;;;7.20;3.75;;;;;;;;;;7330007;19;153516;-16
2022/08/22 10:30:38;;;;;;;;;;;;;;;;;;7330138;19;161769;-15
2022/08/22 10:33:17;;;;;;;10.53;5.00;;;;;;;;;;7328448;19;162465;-16
2022/08/22 10:35:59;;;;;;;5.97;4.55;;;;;;;;;;7329860;19;153912;-22
2022/08/22 10:38:34;;;;;;;5.93;4.28;;;;;;;;;;7329479;19;153550;-16
2022/08/22 10:41:10;;;;;;;6.38;4.15;;;;;;;;;;7327923;19;162045;-16
2022/08/22 10:43:49;;;;;;;7.28;4.05;;;;;;;;;;7328983;19;162427;-15
2022/08/22 10:46:26;;;;;;;8.18;4.25;;;;;;;;;;7329379;19;154022;-15
2022/08/22 10:49:03;;;;;;;5.97;4.55;;;;;;;;;;7329179;19;153788;-16
2022/08/22 10:51:43;;;;;;;6.10;4.43;;;;;;;;;;7328881;19;161761;-16
2022/08/22 10:54:30;;;;;;;7.43;4.75;;;;;;;;;;7325294;19;162582;-16
2022/08/22 10:57:13;;;;;;;7.30;4.63;;;;;;;;;;7329059;19;154102;-16
2022/08/22 10:59:49;;;;;;;7.43;5.10;;;;;;;;;;7327508;19;153535;-16
2022/08/22 11:02:41;;;;;;;11.35;5.43;;;;;;;;;;7328376;19;161891;-16
2022/08/22 11:05:37;;;;;;;7.05;5.05;;;;;;;;;;7328590;19;162252;-15
2022/08/22 11:08:35;;;;;;;5.90;4.72;;;;;;;;;;7327354;19;154277;-16
2022/08/22 11:11:39;;;;;;;6.72;4.78;;;;;;;;;;7333168;19;153666;-16
2022/08/22 11:14:44;;;;;;;9.85;6.13;;;;;;;;;;7327681;19;161854;-16
2022/08/22 11:17:26;;;;;;;8.25;5.78;;;;;;;;;;7334222;19;162513;-16
2022/08/22 11:20:12;;;;;;;9.18;5.78;;;;;;;;;;7335153;19;154006;-16
2022/08/22 11:23:02;;;;;;;9.40;5.72;;;;;;;;;;7335164;19;153776;-16
2022/08/22 11:25:46;;;;;;;6.85;5.15;;;;;;;;;;7334799;19;161898;-16
2022/08/22 11:28:39;;;;;;;8.63;6.03;;;;;;;;;;7334748;19;162461;-16
2022/08/22 11:31:22;;;;;;;9.68;6.15;;;;;;;;;;7335210;19;154128;-16
2022/08/22 11:33:59;;;;;;;8.80;5.55;;;;;;;;;;7334951;19;153622;-16
2022/08/22 11:36:38;;;;;;;9.82;5.55;;;;;;;;;;7334429;19;161866;-16
2022/08/22 11:39:24;;;;;;;6.40;5.70;;;;;;;;;;7334080;19;162353;-16
2022/08/22 11:42:08;;;;;;;10.68;6.57;;;;;;;;;;7333656;19;154103;-16
2022/08/22 11:44:47;;;;;;;7.20;5.43;;;;;;;;;;7334656;19;153816;-15
2022/08/22 11:47:21;;;;;;;7.53;5.40;;;;;;;;;;7334297;19;162128;-16
2022/08/22 11:50:02;;;;;;;7.63;5.95;;;;;;;;;;7333936;19;162521;-17
2022/08/22 11:52:57;;;;;;;6.88;5.65;;;;;;;;;;7334250;19;154141;-16
2022/08/22 11:55:34;;;;;;;11.32;6.38;;;;;;;;;;7334255;19;153502;-16
2022/08/22 11:58:24;;;;;;;9.38;6.07;;;;;;;;;;7333775;19;161815;-16
2022/08/22 12:01:01;;;;;;;6.22;5.45;;;;;;;;;;7330781;19;162443;-16
2022/08/22 12:03:48;;;;;;;8.23;5.35;;;;;;;;;;7333924;19;154069;-16
2022/08/22 12:06:45;;;;;;;7.63;5.72;;;;;;;;;;7334040;19;153707;-16
2022/08/22 12:09:27;;;;;;;6.70;5.43;;;;;;;;;;7333200;19;162580;-15
2022/08/22 12:12:20;;;;;;;7.03;5.55;;;;;;;;;;7333386;19;162883;-15
2022/08/22 12:14:58;;;;;;;8.43;5.85;;;;;;;;;;7333862;19;154074;-16
2022/08/22 12:18:06;;;;;;;7.18;5.78;;;;;;;;;;7333915;19;153565;-16
2022/08/22 12:20:57;;;;;;;8.93;6.00;;;;;;;;;;7332027;19;162435;-16
2022/08/22 12:23:47;;;;;;;7.72;5.50;;;;;;;;;;7333644;19;162501;-16
2022/08/22 12:26:29;;;;;;;6.47;5.50;;;;;;;;;;7333114;19;154275;-15
2022/08/22 12:29:19;;;;;;;5.82;5.22;;;;;;;;;;7331389;19;153621;-16
2022/08/22 12:32:30;;;;;;;7.75;5.30;;;;;;;;;;7332264;19;161848;-16
2022/08/22 12:35:16;;;;;;;5.60;4.60;;;;;;;;;;7332002;19;162975;-15
2022/08/22 12:37:58;;;;;;;6.72;5.82;;;;;;;;;;7333680;19;154071;-14
2022/08/22 12:40:42;;;;;;;7.47;4.95;;;;;;;;;;7332473;19;153558;-14
2022/08/22 12:43:30;;;;;;;11.50;5.53;;;;;;;;;;7332634;19;161814;-14
2022/08/22 12:46:30;;;;;;;6.63;4.97;;;;;;;;;;7332708;19;162592;-14
2022/08/22 12:49:30;;;;;;;5.93;4.82;;;;;;;;;;7333180;19;154104;-14
2022/08/22 12:52:21;;;;;;;7.20;5.05;;;;;;;;;;7332664;19;153520;-15
2022/08/22 12:55:40;;;;;;;6.88;5.32;;;;;;;;;;7329903;19;161749;-17
2022/08/22 12:58:19;;;;;;;6.80;5.53;;;;;;;;;;7329511;19;162709;-15
2022/08/22 13:00:51;;;;;;;6.25;5.00;;;;;;;;;;7331386;19;154092;-14
2022/08/22 13:03:31;;;;;;;7.07;4.87;;;;;;;;;;7332702;19;153923;-14
2022/08/22 13:06:08;;;;;;;6.72;4.85;;;;;;;;;;7332430;19;161844;-15
2022/08/22 13:08:46;;;;;;;6.93;4.70;;;;;;;;;;7332300;19;162417;-15
2022/08/22 13:11:21;;;;;;;8.57;4.72;;;;;;;;;;7331531;19;154115;-14
2022/08/22 13:13:56;;;;;;;8.93;4.82;;;;;;;;;;7334074;19;153790;-15
2022/08/22 13:16:38;;;;;;;4.97;4.20;;;;;;;;;;7332160;19;161684;-14
2022/08/22 13:19:19;;;;;;;6.50;4.43;;;;;;;;;;7330566;19;162219;-15
2022/08/22 13:21:54;;;;;;;5.22;4.63;;;;;;;;;;7330533;19;154376;-15
2022/08/22 13:24:35;;;;;;;5.60;4.55;;;;;;;;;;7330695;19;153638;-14
2022/08/22 13:27:10;;;;;;;5.25;4.20;;;;;;;;;;7331457;19;162266;-15
2022/08/22 13:29:46;;;;;;;4.45;3.90;;;;;;;;;;7331436;19;162449;-14
2022/08/22 13:32:25;;;;;;;7.00;4.47;;;;;;;;;;7331520;19;154043;-15
2022/08/22 13:35:00;;;;;;;7.53;4.40;;;;;;;;;;7331500;19;153711;-15
2022/08/22 13:37:36;;;;;;;6.00;4.43;;;;;;;;;;7329915;19;162268;-15
2022/08/22 13:40:15;;;;;;;11.20;4.53;;;;;;;;;;7328775;19;162324;-15
2022/08/22 13:42:50;;;;;;;10.13;4.35;;;;;;;;;;7328540;19;153953;-15
2022/08/22 13:45:28;;;;;;;8.15;4.43;;;;;;;;;;7329670;19;153493;-15
2022/08/22 13:48:03;;;;;;;4.63;3.63;;;;;;;;;;7330625;19;162033;-15
2022/08/22 13:50:46;;;;;;;5.22;3.95;;;;;;;;;;7330475;19;163071;-14
2022/08/22 13:53:27;;;;;;;6.47;4.05;;;;;;;;;;7329591;19;155501;-15
2022/08/22 13:56:07;;;;;;;5.93;3.92;;;;;;;;;;7330609;19;153895;-15
2022/08/22 13:58:42;;;;;;;4.32;3.92;;;;;;;;;;7329259;19;161912;-15
2022/08/22 14:01:33;;;;;;;4.85;4.15;;;;;;;;;;7329416;19;162750;-15
2022/08/22 14:04:14;;;;;;;4.82;3.63;;;;;;;;;;7330645;19;153828;-15
2022/08/22 14:06:53;;;;;;;5.63;4.18;;;;;;;;;;7330202;19;153629;-15
2022/08/22 14:09:36;;;;;;;4.63;3.40;;;;;;;;;;7329938;19;161726;-15
2022/08/22 14:12:12;;;;;;;7.00;4.22;;;;;;;;;;7329574;19;162449;-15
2022/08/22 14:14:47;;;;;;;5.82;3.75;;;;;;;;;;7329831;19;154466;-17
2022/08/22 14:17:25;;;;;;;7.22;3.60;;;;;;;;;;7330044;19;153745;-15
2022/08/22 14:20:02;;;;;;;4.07;3.38;;;;;;;;;;7328503;19;161894;-15
2022/08/22 14:22:37;;;;;;;3.78;3.40;;;;;;;;;;7327517;19;162602;-15
2022/08/22 14:25:18;;;;;;;3.85;3.47;;;;;;;;;;7329849;19;154018;-15
2022/08/22 14:28:00;;;;;;;5.65;3.97;;;;;;;;;;7329805;19;154084;-15
2022/08/22 14:30:34;;;;;;;7.30;3.95;;;;;;;;;;7329529;19;162550;-16
2022/08/22 14:33:14;;;;;;;5.72;3.90;;;;;;;;;;7329279;19;162527;-15
2022/08/22 14:35:49;;;;;;;4.90;3.15;;;;;;;;;;7329545;19;154200;-15
2022/08/22 14:38:34;;;;;;;5.63;3.50;;;;;;;;;;7329325;19;153523;-16
2022/08/22 14:41:07;;;;;;;3.45;2.95;;;;;;;;;;7329056;19;161858;-15
2022/08/22 14:43:51;;;;;;;6.45;3.40;;;;;;;;;;7328983;19;162663;-15
2022/08/22 14:46:27;;;;;;;3.67;3.00;;;;;;;;;;7329348;19;154539;-15
2022/08/22 14:49:25;;;;;;;4.80;3.55;;;;;;;;;;7328994;19;153622;-15
2022/08/22 14:52:04;;;;;;;4.28;3.20;;;;;;;;;;7327153;19;161776;-16
2022/08/22 14:54:39;;;;;;;4.88;3.25;;;;;;;;;;7325918;19;162414;-16
2022/08/22 14:57:15;;;;;;;5.93;3.22;;;;;;;;;;7328774;19;154016;-15
2022/08/22 14:59:49;;;;;;;5.53;3.38;;;;;;;;;;7328716;19;153826;-15
2022/08/22 15:02:28;;;;;;;2.83;2.55;;;;;;;;;;7327288;19;161935;-15
2022/08/22 15:05:13;;;;;;;4.93;3.00;;;;;;;;;;7328249;19;162638;-15
2022/08/22 15:07:57;;;;;;;5.05;2.92;;;;;;;;;;7332417;19;154059;-15
2022/08/22 15:10:35;;;;;;;3.45;3.00;;;;;;;;;;7328577;19;153562;-15
2022/08/22 15:13:11;;;;;;;3.97;3.08;;;;;;;;;;7328153;19;162112;-15
2022/08/22 15:15:48;;;;;;;3.13;2.67;;;;;;;;;;7329034;19;162735;-16
2022/08/22 15:18:33;;;;;;;2.78;2.50;;;;;;;;;;7327225;19;154242;-16
2022/08/22 15:21:08;;;;;;;3.97;3.10;;;;;;;;;;7328186;19;154547;-15
2022/08/22 15:23:44;;;;;;;4.25;3.00;;;;;;;;;;7324326;19;161861;-15
2022/08/22 15:26:26;;;;;;;5.28;2.90;;;;;;;;;;7327732;19;162482;-15
2022/08/22 15:29:09;;;;;;;3.25;2.90;;;;;;;;;;7328113;19;154098;-16
2022/08/22 15:31:41;;;;;;;3.22;2.92;;;;;;;;;;7327886;19;153595;-15
2022/08/22 15:34:16;;;;;;;5.90;3.03;;;;;;;;;;7327537;19;161955;-16
2022/08/22 15:37:07;;;;;;;3.00;2.60;;;;;;;;;;7327310;19;162398;-15
2022/08/22 15:40:01;;;;;;;6.07;2.30;;;;;;;;;;7327458;19;154110;-16
2022/08/22 15:42:42;;;;;;;3.10;2.70;;;;;;;;;;7326459;19;153493;-15
2022/08/22 15:45:32;;;;;;;5.07;2.47;;;;;;;;;;7327086;19;162215;-15
2022/08/22 15:48:08;;;;;;;4.38;2.55;;;;;;;;;;7325684;19;162480;-16
2022/08/22 15:50:42;;;;;;;4.53;2.67;;;;;;;;;;7327263;19;154239;-16
2022/08/22 15:53:22;;;;;;;3.08;2.22;;;;;;;;;;7326206;19;153579;-15
2022/08/22 15:56:24;;;;;;;2.75;1.98;;;;;;;;;;7326696;19;162057;-15
2022/08/22 15:59:25;;;;;;;4.95;2.85;;;;;;;;;;7326652;19;162597;-15
2022/08/22 16:02:00;;;;;;;3.33;2.60;;;;;;;;;;7329126;19;154075;-15
2022/08/22 16:04:48;;;;;;;3.20;2.80;;;;;;;;;;7332826;19;153594;-15
2022/08/22 16:07:37;;;;;;;8.52;2.53;;;;;;;;;;7333675;19;161922;-16
2022/08/22 16:10:13;;;;;;;4.22;2.40;;;;;;;;;;7333630;19;162720;-16